Time;durP1;ratioP1;P1;durP2;ratioP2;P2;SDS_P1;SDS_P2;PMS_P1;PMS_P2;Temp;Humidity;BMP_temperature;BMP_pressure;BME280_temperature;BME280_humidity;BME280_pressure;Samples;Min_cycle;Max_cycle;Signal;HPM_P1;HPM_P2
2023/03/01 00:02:12;;;;;;;18.70;9.70;;;-0.80;1.00;;;;;;5019577;28;20207;-51
2023/03/01 00:04:37;;;;;;;18.90;8.37;;;-0.90;1.00;;;;;;5028786;28;20187;-50
2023/03/01 00:07:03;;;;;;;19.70;9.87;;;-0.90;1.00;;;;;;5024438;28;20306;-49
2023/03/01 00:09:29;;;;;;;18.93;9.50;;;-0.80;1.00;;;;;;5023161;28;20678;-50
2023/03/01 00:11:54;;;;;;;19.17;9.10;;;-0.80;1.00;;;;;;5017560;28;20223;-50
2023/03/01 00:14:20;;;;;;;17.43;9.50;;;-0.80;1.00;;;;;;5017781;28;20252;-50
2023/03/01 00:16:46;;;;;;;20.47;9.40;;;-0.80;1.00;;;;;;5017604;28;20196;-51
2023/03/01 00:19:14;;;;;;;15.23;8.90;;;-0.80;1.00;;;;;;5017234;28;20662;-50
2023/03/01 00:21:40;;;;;;;17.07;10.03;;;-0.80;1.00;;;;;;5020110;28;20442;-51
2023/03/01 00:24:06;;;;;;;18.57;9.00;;;-0.80;1.00;;;;;;5027964;28;20443;-50
2023/03/01 00:26:32;;;;;;;16.80;9.43;;;-0.80;1.00;;;;;;5019432;28;20454;-51
2023/03/01 00:28:59;;;;;;;18.13;9.47;;;-0.80;1.00;;;;;;5018255;28;20443;-50
2023/03/01 00:31:27;;;;;;;17.20;10.17;;;-0.80;1.00;;;;;;5016132;28;21185;-50
2023/03/01 00:33:57;;;;;;;19.87;10.20;;;-0.80;1.00;;;;;;5017952;28;20442;-50
2023/03/01 00:36:25;;;;;;;21.73;9.87;;;-0.80;1.00;;;;;;5016065;28;20540;-50
2023/03/01 00:38:51;;;;;;;21.13;10.77;;;-0.80;1.00;;;;;;5015682;28;20996;-50
2023/03/01 00:41:18;;;;;;;18.60;10.17;;;-0.80;1.00;;;;;;5019548;28;20446;-50
2023/03/01 00:43:44;;;;;;;16.97;10.10;;;-0.80;1.00;;;;;;5015110;28;20262;-50
2023/03/01 00:46:19;;;;;;;14.97;8.80;;;-0.80;1.00;;;;;;5017044;28;20456;-50
2023/03/01 00:48:45;;;;;;;15.17;9.63;;;-0.80;1.00;;;;;;5019292;28;20868;-50
2023/03/01 00:51:16;;;;;;;19.90;9.90;;;-0.80;1.00;;;;;;5016598;28;20430;-51
2023/03/01 00:53:42;;;;;;;17.13;9.87;;;-0.80;1.00;;;;;;5016125;28;20456;-50
2023/03/01 00:56:09;;;;;;;15.70;9.80;;;-0.70;1.00;;;;;;5017347;28;20444;-51
2023/03/01 00:58:36;;;;;;;16.20;10.03;;;-0.70;1.00;;;;;;5017469;28;20482;-50
2023/03/01 01:01:18;;;;;;;14.73;9.10;;;-0.70;1.00;;;;;;5016068;28;21016;-50
2023/03/01 01:03:51;;;;;;;16.20;9.40;;;-0.70;1.00;;;;;;5017251;28;20479;-51
2023/03/01 01:06:38;;;;;;;15.50;9.57;;;-0.70;1.00;;;;;;5019234;28;20892;-51
2023/03/01 01:09:06;;;;;;;14.63;8.87;;;-0.70;1.00;;;;;;5022093;28;20449;-51
2023/03/01 01:11:32;;;;;;;16.63;9.63;;;-0.70;1.00;;;;;;5024739;28;20922;-50
2023/03/01 01:13:58;;;;;;;17.57;9.27;;;-0.70;1.00;;;;;;5020628;28;20440;-51
2023/03/01 01:16:26;;;;;;;16.57;10.00;;;-0.70;1.00;;;;;;5026004;28;20442;-51
2023/03/01 01:18:52;;;;;;;22.47;10.80;;;-0.70;1.00;;;;;;5024459;28;20506;-50
2023/03/01 01:21:20;;;;;;;18.33;10.13;;;-0.70;1.00;;;;;;5024593;28;20474;-50
2023/03/01 01:23:47;;;;;;;19.17;9.70;;;-0.70;1.00;;;;;;5025079;28;20431;-50
2023/03/01 01:26:20;;;;;;;18.37;9.60;;;-0.70;1.00;;;;;;5025547;28;21000;-51
2023/03/01 01:28:46;;;;;;;18.17;9.50;;;-0.70;1.00;;;;;;5026087;28;20434;-50
2023/03/01 01:31:12;;;;;;;13.40;8.77;;;-0.80;1.00;;;;;;5023522;28;21563;-51
2023/03/01 01:33:38;;;;;;;14.13;9.20;;;-0.80;1.00;;;;;;5026987;28;20532;-51
2023/03/01 01:36:05;;;;;;;17.53;9.70;;;-0.80;1.00;;;;;;5024515;28;20215;-50
2023/03/01 01:38:31;;;;;;;18.10;9.23;;;-0.90;1.00;;;;;;5022918;28;20223;-51
2023/03/01 01:40:57;;;;;;;15.27;9.40;;;-0.90;1.00;;;;;;5024482;28;20444;-50
2023/03/01 01:43:28;;;;;;;16.07;8.80;;;-1.00;1.00;;;;;;5023138;28;20227;-50
2023/03/01 01:46:01;;;;;;;19.10;9.10;;;-1.00;1.00;;;;;;5027029;28;20441;-50
2023/03/01 01:48:41;;;;;;;15.67;8.40;;;-1.10;1.00;;;;;;5024771;28;20477;-50
2023/03/01 01:51:15;;;;;;;17.07;8.93;;;-1.10;1.00;;;;;;5024424;28;20532;-51
2023/03/01 01:53:43;;;;;;;14.70;9.53;;;-1.10;1.00;;;;;;5024859;28;20950;-51
2023/03/01 01:56:12;;;;;;;15.87;8.07;;;-1.10;1.00;;;;;;5028785;28;20433;-51
2023/03/01 01:58:39;;;;;;;14.87;8.27;;;-1.10;1.00;;;;;;5026267;28;21068;-50
2023/03/01 02:01:05;;;;;;;14.00;8.60;;;-1.10;1.00;;;;;;5026975;28;20448;-50
2023/03/01 02:03:37;;;;;;;13.73;8.70;;;-1.10;1.00;;;;;;5029399;28;20457;-50
2023/03/01 02:06:28;;;;;;;15.40;9.67;;;-1.10;1.00;;;;;;5028131;28;20809;-50
2023/03/01 02:08:59;;;;;;;13.50;8.63;;;-1.10;1.90;;;;;;5026692;28;20523;-50
2023/03/01 02:11:25;;;;;;;15.27;8.63;;;-1.10;12.40;;;;;;5027311;28;20518;-50
2023/03/01 02:13:53;;;;;;;16.00;9.97;;;-1.10;19.20;;;;;;5028351;28;20429;-50
2023/03/01 02:16:19;;;;;;;15.10;9.47;;;-1.00;20.00;;;;;;5030439;28;20447;-50
2023/03/01 02:18:46;;;;;;;18.53;9.40;;;-1.00;17.70;;;;;;5030777;28;20469;-50
2023/03/01 02:21:28;;;;;;;18.93;9.20;;;-1.10;21.40;;;;;;5027254;28;20443;-50
2023/03/01 02:23:55;;;;;;;14.20;9.20;;;-1.00;29.60;;;;;;5026945;28;20442;-50
2023/03/01 02:26:42;;;;;;;15.30;8.50;;;-1.00;29.10;;;;;;5029052;28;20484;-51
2023/03/01 02:29:07;;;;;;;16.23;9.70;;;-1.00;31.70;;;;;;5025456;28;20466;-50
2023/03/01 02:31:42;;;;;;;14.23;8.17;;;-1.00;29.40;;;;;;5026779;28;20469;-50
2023/03/01 02:34:14;;;;;;;13.30;8.10;;;-1.00;33.30;;;;;;5026900;28;20192;-51
2023/03/01 02:36:56;;;;;;;15.17;8.00;;;-0.90;23.40;;;;;;5026574;28;20454;-50
2023/03/01 02:39:26;;;;;;;12.13;8.13;;;-0.90;15.70;;;;;;5024736;28;20520;-50
2023/03/01 02:41:54;;;;;;;13.37;8.27;;;-0.90;18.10;;;;;;5025292;28;20531;-50
2023/03/01 02:44:21;;;;;;;15.30;8.93;;;-0.90;13.70;;;;;;5027464;28;20466;-50
2023/03/01 02:46:49;;;;;;;11.33;7.87;;;-0.90;19.30;;;;;;5028042;28;20440;-51
2023/03/01 02:49:27;;;;;;;15.43;9.27;;;-0.90;12.90;;;;;;5025254;28;20516;-51
2023/03/01 02:52:23;;;;;;;12.80;8.10;;;-0.90;17.60;;;;;;5025103;28;20793;-50
2023/03/01 02:55:06;;;;;;;12.90;8.10;;;-0.90;14.30;;;;;;5028370;28;20458;-50
2023/03/01 02:57:35;;;;;;;18.23;8.27;;;-0.80;1.80;;;;;;5027768;28;20441;-50
2023/03/01 03:00:08;;;;;;;12.40;8.00;;;-0.80;1.00;;;;;;5026448;28;22221;-51
2023/03/01 03:02:37;;;;;;;11.80;7.90;;;-0.80;1.00;;;;;;5028751;28;20491;-51
2023/03/01 03:05:10;;;;;;;16.27;8.80;;;-0.80;1.00;;;;;;5028144;28;20454;-50
2023/03/01 03:07:39;;;;;;;10.87;7.50;;;-0.90;1.00;;;;;;5029687;28;20937;-50
2023/03/01 03:10:08;;;;;;;16.20;8.87;;;-0.90;1.00;;;;;;5031243;28;20432;-50
2023/03/01 03:12:33;;;;;;;12.47;7.60;;;-0.90;1.00;;;;;;5028268;28;20434;-50
2023/03/01 03:14:59;;;;;;;14.20;8.27;;;-0.90;1.00;;;;;;5026191;28;20445;-50
2023/03/01 03:17:24;;;;;;;13.70;8.40;;;-0.90;1.00;;;;;;5028687;28;20188;-50
2023/03/01 03:19:50;;;;;;;15.43;8.13;;;-0.90;1.00;;;;;;5026487;28;20227;-51
2023/03/01 03:22:16;;;;;;;14.83;8.17;;;-0.90;1.00;;;;;;5026701;28;20183;-50
2023/03/01 03:24:41;;;;;;;12.57;7.60;;;-0.90;1.00;;;;;;5026742;28;20200;-50
2023/03/01 03:27:08;;;;;;;16.93;7.70;;;-0.90;1.00;;;;;;5027379;28;20269;-50
2023/03/01 03:29:34;;;;;;;12.50;7.40;;;-0.80;1.00;;;;;;5026689;28;20258;-50
2023/03/01 03:31:59;;;;;;;12.83;7.87;;;-0.80;1.00;;;;;;5026300;28;20442;-50
2023/03/01 03:34:25;;;;;;;10.40;7.73;;;-0.70;1.00;;;;;;5027779;28;20195;-50
2023/03/01 03:36:59;;;;;;;13.67;7.80;;;-0.70;1.00;;;;;;5026526;28;20191;-50
2023/03/01 03:39:26;;;;;;;10.17;7.37;;;-0.60;1.00;;;;;;5025686;28;20219;-51
2023/03/01 03:41:53;;;;;;;11.30;7.37;;;-0.60;1.00;;;;;;5028733;28;20454;-51
2023/03/01 03:44:18;;;;;;;11.80;7.27;;;-0.50;1.00;;;;;;5024683;28;20478;-50
2023/03/01 03:46:44;;;;;;;11.23;6.37;;;-0.50;1.00;;;;;;5024390;28;20435;-50
2023/03/01 03:49:09;;;;;;;13.87;6.63;;;-0.40;1.00;;;;;;5026416;28;20203;-50
2023/03/01 03:51:35;;;;;;;11.30;6.73;;;-0.30;1.00;;;;;;5027949;28;20230;-51
2023/03/01 03:54:01;;;;;;;10.23;6.60;;;-0.20;1.00;;;;;;5024199;28;20191;-50
2023/03/01 03:56:26;;;;;;;14.40;6.30;;;-0.10;1.00;;;;;;5025785;28;20191;-51
2023/03/01 03:58:52;;;;;;;11.57;6.90;;;0.00;1.00;;;;;;5025865;28;20644;-51
2023/03/01 04:01:18;;;;;;;8.60;6.23;;;0.00;1.00;;;;;;5024969;28;20278;-50
2023/03/01 04:03:46;;;;;;;9.47;6.00;;;0.10;1.00;;;;;;5028596;28;20439;-50
2023/03/01 04:06:13;;;;;;;12.47;6.80;;;0.10;1.00;;;;;;5027052;28;20444;-51
2023/03/01 04:08:39;;;;;;;8.07;5.90;;;0.20;1.00;;;;;;5024282;28;20437;-51
2023/03/01 04:13:51;;;;;;;9.60;5.80;;;0.30;1.00;;;;;;5029425;28;20706;-50
2023/03/01 04:16:17;;;;;;;11.47;6.27;;;0.30;1.00;;;;;;5024305;28;20447;-51
2023/03/01 04:18:43;;;;;;;11.90;6.37;;;0.40;1.00;;;;;;5027556;28;20560;-50
2023/03/01 04:21:11;;;;;;;10.43;5.93;;;0.40;1.00;;;;;;5025404;28;20446;-50
2023/03/01 04:23:37;;;;;;;10.10;6.23;;;0.50;1.00;;;;;;5024785;28;20517;-51
2023/03/01 04:26:03;;;;;;;7.37;5.43;;;0.50;1.00;;;;;;5024735;28;20957;-51
2023/03/01 04:28:35;;;;;;;10.50;6.17;;;0.60;1.00;;;;;;5024857;28;20987;-50
2023/03/01 04:31:12;;;;;;;9.83;6.10;;;0.60;1.00;;;;;;5027654;28;20454;-50
2023/03/01 04:33:59;;;;;;;10.23;5.63;;;0.60;1.00;;;;;;5026050;28;20437;-50
2023/03/01 04:36:27;;;;;;;6.93;5.63;;;0.60;1.00;;;;;;5026258;28;20440;-50
2023/03/01 04:38:53;;;;;;;11.27;6.20;;;0.70;1.00;;;;;;5024829;28;20486;-50
2023/03/01 04:41:21;;;;;;;10.83;5.43;;;0.70;1.00;;;;;;5027075;28;20446;-51
2023/03/01 04:43:48;;;;;;;12.10;5.77;;;0.70;1.00;;;;;;5023486;28;20880;-50
2023/03/01 04:46:16;;;;;;;8.17;6.10;;;0.70;1.00;;;;;;5023779;28;21017;-50
2023/03/01 04:48:43;;;;;;;11.87;6.27;;;0.80;1.00;;;;;;5022455;28;20501;-51
2023/03/01 04:51:09;;;;;;;7.50;6.00;;;0.80;1.00;;;;;;5026301;28;20472;-51
2023/03/01 04:53:38;;;;;;;10.10;6.07;;;0.80;1.00;;;;;;5027207;28;20477;-50
2023/03/01 04:56:04;;;;;;;8.83;5.83;;;0.80;1.00;;;;;;5021413;28;20220;-50
2023/03/01 04:58:29;;;;;;;15.83;6.30;;;0.80;1.00;;;;;;5025118;28;20504;-50
2023/03/01 05:00:55;;;;;;;10.97;6.10;;;0.80;1.00;;;;;;5025584;28;20441;-51
2023/03/01 05:03:21;;;;;;;15.23;6.33;;;0.90;1.00;;;;;;5024755;28;20627;-51
2023/03/01 05:05:50;;;;;;;9.97;6.23;;;0.90;1.00;;;;;;5026761;28;20183;-50
2023/03/01 05:08:18;;;;;;;9.93;6.60;;;0.90;1.00;;;;;;5024718;28;20457;-52
2023/03/01 05:10:51;;;;;;;8.40;6.07;;;0.90;1.00;;;;;;5026467;28;20464;-51
2023/03/01 05:13:21;;;;;;;11.90;5.87;;;0.90;1.00;;;;;;5023436;28;20458;-51
2023/03/01 05:15:49;;;;;;;9.10;6.43;;;0.90;1.00;;;;;;5023385;28;20482;-51
2023/03/01 05:18:15;;;;;;;8.33;5.83;;;0.90;1.00;;;;;;5028153;28;20452;-50
2023/03/01 05:20:40;;;;;;;26.77;6.60;;;0.90;1.00;;;;;;5022783;28;20446;-51
2023/03/01 05:23:06;;;;;;;10.30;5.80;;;1.00;1.00;;;;;;5025134;28;20558;-51
2023/03/01 05:25:33;;;;;;;12.73;5.90;;;0.90;1.00;;;;;;5023912;28;20245;-51
2023/03/01 05:28:04;;;;;;;13.37;6.50;;;0.90;1.00;;;;;;5024018;28;20242;-51
2023/03/01 05:30:34;;;;;;;10.10;6.00;;;1.00;1.00;;;;;;5025974;28;20428;-51
2023/03/01 05:33:00;;;;;;;11.77;6.03;;;0.90;1.00;;;;;;5024577;28;20441;-51
2023/03/01 05:35:26;;;;;;;15.20;6.33;;;1.00;1.00;;;;;;5025698;28;20499;-51
2023/03/01 05:37:52;;;;;;;12.87;6.90;;;1.00;1.00;;;;;;5024366;28;20537;-51
2023/03/01 05:40:21;;;;;;;11.27;6.37;;;1.00;1.00;;;;;;5023446;28;20568;-51
2023/03/01 05:42:49;;;;;;;9.80;5.90;;;1.00;1.00;;;;;;5023966;28;20485;-51
2023/03/01 05:45:16;;;;;;;10.47;6.07;;;1.00;1.00;;;;;;5025145;28;20495;-50
2023/03/01 05:47:43;;;;;;;9.63;6.40;;;1.00;1.00;;;;;;5025422;28;20458;-51
2023/03/01 05:50:25;;;;;;;8.37;5.27;;;1.10;1.00;;;;;;5024542;28;20442;-51
2023/03/01 05:52:56;;;;;;;13.90;6.13;;;1.10;1.00;;;;;;5023159;28;20512;-52
2023/03/01 05:55:22;;;;;;;13.03;6.07;;;1.10;1.00;;;;;;5021625;28;20461;-50
2023/03/01 05:57:49;;;;;;;10.17;6.00;;;1.10;1.00;;;;;;5025667;28;20434;-51
2023/03/01 06:00:17;;;;;;;9.90;6.20;;;1.10;1.00;;;;;;5024569;28;20227;-50
2023/03/01 06:02:43;;;;;;;12.87;6.57;;;1.10;1.00;;;;;;5022593;28;20930;-51
2023/03/01 06:05:10;;;;;;;20.07;6.43;;;1.10;1.00;;;;;;5023451;28;20642;-51
2023/03/01 06:07:36;;;;;;;8.60;5.63;;;1.10;1.00;;;;;;5021982;28;20646;-51
2023/03/01 06:10:03;;;;;;;28.50;5.80;;;1.00;1.00;;;;;;5024713;28;20592;-51
2023/03/01 06:12:37;;;;;;;12.77;6.30;;;1.00;1.00;;;;;;5024680;28;20792;-51
2023/03/01 06:15:04;;;;;;;14.03;5.77;;;1.00;1.00;;;;;;5024304;28;20453;-51
2023/03/01 06:17:32;;;;;;;12.60;5.30;;;1.10;1.00;;;;;;5024066;28;20438;-51
2023/03/01 06:19:57;;;;;;;10.50;5.50;;;1.10;1.00;;;;;;5021718;28;20477;-51
2023/03/01 06:22:23;;;;;;;20.20;5.70;;;1.10;1.00;;;;;;5025645;28;20449;-51
2023/03/01 06:24:49;;;;;;;8.17;5.13;;;1.20;1.00;;;;;;5022315;28;20580;-51
2023/03/01 06:27:15;;;;;;;8.67;5.20;;;1.20;1.00;;;;;;5023835;28;20589;-51
2023/03/01 06:29:41;;;;;;;16.63;4.90;;;1.20;1.00;;;;;;5021192;28;20443;-50
2023/03/01 06:32:07;;;;;;;8.20;4.77;;;1.20;1.00;;;;;;5022285;28;20507;-52
2023/03/01 06:34:33;;;;;;;10.87;5.93;;;1.20;1.00;;;;;;5021088;28;20642;-51
2023/03/01 06:36:59;;;;;;;14.67;5.33;;;1.20;1.00;;;;;;5024181;28;20435;-52
2023/03/01 06:39:24;;;;;;;8.60;5.33;;;1.20;1.00;;;;;;5024999;28;20242;-51
2023/03/01 06:41:50;;;;;;;7.73;4.80;;;1.20;1.00;;;;;;5027937;28;20313;-50
2023/03/01 06:44:16;;;;;;;10.20;5.90;;;1.20;1.00;;;;;;5027186;28;20230;-50
2023/03/01 06:46:41;;;;;;;12.87;5.30;;;1.20;1.00;;;;;;5024188;28;20550;-51
2023/03/01 06:49:09;;;;;;;17.53;5.53;;;1.30;1.00;;;;;;5025827;28;20206;-51
2023/03/01 06:51:36;;;;;;;10.80;5.70;;;1.40;1.00;;;;;;5028100;28;20191;-51
2023/03/01 06:54:03;;;;;;;8.80;5.10;;;1.40;1.00;;;;;;5027186;28;20536;-51
2023/03/01 06:56:28;;;;;;;13.47;5.63;;;1.50;1.00;;;;;;5027840;28;20438;-52
2023/03/01 06:58:54;;;;;;;16.67;7.23;;;1.60;1.00;;;;;;5025578;28;20477;-51
2023/03/01 07:01:19;;;;;;;33.73;15.33;;;1.70;1.00;;;;;;5028358;28;20180;-50
2023/03/01 07:03:46;;;;;;;20.63;8.60;;;1.70;1.00;;;;;;5025572;28;20238;-51
2023/03/01 07:06:11;;;;;;;9.93;5.93;;;1.80;1.00;;;;;;5027218;28;20331;-51
2023/03/01 07:08:37;;;;;;;11.33;6.90;;;1.80;1.00;;;;;;5027517;28;20941;-50
2023/03/01 07:11:03;;;;;;;12.90;6.50;;;1.90;1.00;;;;;;5028811;28;20557;-51
2023/03/01 07:13:29;;;;;;;19.30;6.07;;;1.90;1.00;;;;;;5029772;28;20190;-51
2023/03/01 07:15:55;;;;;;;11.30;6.43;;;2.00;1.00;;;;;;5028011;28;20618;-50
2023/03/01 07:18:20;;;;;;;10.27;6.43;;;2.10;1.00;;;;;;5028415;28;20671;-51
2023/03/01 07:20:46;;;;;;;11.33;5.90;;;2.20;1.00;;;;;;5027885;28;20196;-51
2023/03/01 07:23:11;;;;;;;10.77;6.23;;;2.20;1.00;;;;;;5028594;28;20592;-51
2023/03/01 07:25:37;;;;;;;10.17;6.00;;;2.30;1.00;;;;;;5027880;28;20660;-51
2023/03/01 07:28:03;;;;;;;12.03;6.83;;;2.40;1.00;;;;;;5026603;28;20184;-52
2023/03/01 07:30:28;;;;;;;12.50;7.23;;;2.40;1.00;;;;;;5027348;28;20644;-51
2023/03/01 07:32:55;;;;;;;15.73;7.40;;;2.50;1.00;;;;;;5025678;28;20607;-51
2023/03/01 07:35:22;;;;;;;10.90;7.30;;;2.50;1.00;;;;;;5029057;28;20215;-51
2023/03/01 07:37:47;;;;;;;19.63;8.23;;;2.60;1.00;;;;;;5026517;28;20452;-51
2023/03/01 07:40:13;;;;;;;11.87;7.17;;;2.60;1.00;;;;;;5028085;28;20824;-51
2023/03/01 07:42:39;;;;;;;13.30;7.50;;;2.60;1.00;;;;;;5027418;28;20194;-50
2023/03/01 07:45:06;;;;;;;17.27;9.23;;;2.60;1.00;;;;;;5026828;28;20438;-51
2023/03/01 07:47:32;;;;;;;15.13;9.03;;;2.70;1.00;;;;;;5026445;28;20235;-51
2023/03/01 07:49:57;;;;;;;16.20;8.90;;;2.80;1.00;;;;;;5027315;28;20434;-51
2023/03/01 07:52:23;;;;;;;17.53;8.67;;;2.80;1.00;;;;;;5028846;28;20218;-51
2023/03/01 07:54:48;;;;;;;18.83;9.10;;;2.90;1.00;;;;;;5028405;28;20671;-51
2023/03/01 07:57:14;;;;;;;15.90;9.60;;;3.00;1.00;;;;;;5029126;28;20273;-51
2023/03/01 07:59:40;;;;;;;20.87;9.93;;;3.20;1.00;;;;;;5025404;28;20225;-51
2023/03/01 08:02:06;;;;;;;13.97;9.73;;;3.40;1.00;;;;;;5026447;28;20188;-51
2023/03/01 08:04:32;;;;;;;18.70;11.00;;;3.80;1.00;;;;;;5029856;28;20199;-51
2023/03/01 08:06:58;;;;;;;17.93;10.87;;;4.10;1.00;;;;;;5026758;28;20272;-51
2023/03/01 08:09:24;;;;;;;19.30;10.93;;;4.50;1.00;;;;;;5029102;28;20516;-51
2023/03/01 08:11:50;;;;;;;19.33;11.23;;;4.80;1.00;;;;;;5026199;28;20196;-50
2023/03/01 08:14:16;;;;;;;17.97;11.70;;;5.20;1.00;;;;;;5026347;28;20441;-51
2023/03/01 08:16:41;;;;;;;23.80;11.60;;;5.60;1.00;;;;;;5025876;28;20661;-51
2023/03/01 08:19:09;;;;;;;24.80;13.27;;;5.50;1.00;;;;;;5025908;28;20277;-51
2023/03/01 08:21:34;;;;;;;23.13;13.00;;;5.60;1.00;;;;;;5027622;28;20210;-51
2023/03/01 08:24:01;;;;;;;21.87;13.50;;;5.50;1.00;;;;;;5025800;28;20431;-51
2023/03/01 08:26:27;;;;;;;20.47;13.83;;;5.40;1.00;;;;;;5024421;28;20238;-51
2023/03/01 08:28:52;;;;;;;24.93;14.10;;;5.00;1.00;;;;;;5028160;28;20466;-52
2023/03/01 08:31:21;;;;;;;20.17;13.00;;;4.80;1.00;;;;;;5026281;28;20656;-51
2023/03/01 08:33:51;;;;;;;24.00;14.20;;;4.80;1.00;;;;;;5028175;28;20586;-51
2023/03/01 08:36:17;;;;;;;20.17;13.33;;;4.80;1.00;;;;;;5026232;28;20453;-51
2023/03/01 08:38:43;;;;;;;23.23;13.60;;;4.90;1.00;;;;;;5027683;28;20477;-50
2023/03/01 08:41:09;;;;;;;24.90;13.80;;;5.10;1.00;;;;;;5025927;28;20489;-50
2023/03/01 08:43:35;;;;;;;25.83;12.43;;;5.40;1.00;;;;;;5024790;28;20478;-51
2023/03/01 08:46:00;;;;;;;20.70;12.80;;;5.80;1.00;;;;;;5025991;28;20188;-52
2023/03/01 08:48:28;;;;;;;21.73;14.40;;;5.80;1.00;;;;;;5025902;28;20203;-51
2023/03/01 08:50:53;;;;;;;27.87;14.60;;;5.70;1.00;;;;;;5027871;28;20535;-51
2023/03/01 08:53:19;;;;;;;24.13;13.50;;;5.80;1.00;;;;;;5024969;28;20449;-51
2023/03/01 08:55:45;;;;;;;22.07;14.60;;;5.80;1.00;;;;;;5027427;28;20405;-52
2023/03/01 08:58:10;;;;;;;26.00;15.80;;;6.00;1.00;;;;;;5025414;28;20202;-51
2023/03/01 09:00:36;;;;;;;24.70;15.47;;;6.20;1.00;;;;;;5025891;28;20195;-51
2023/03/01 09:03:01;;;;;;;27.57;15.90;;;6.20;1.00;;;;;;5024213;28;20232;-51
2023/03/01 09:05:27;;;;;;;26.03;15.20;;;6.20;1.00;;;;;;5025414;28;20197;-51
2023/03/01 09:07:53;;;;;;;22.80;15.30;;;5.90;1.00;;;;;;5028252;28;20256;-51
2023/03/01 09:10:18;;;;;;;30.00;15.23;;;5.90;1.00;;;;;;5027033;28;20187;-51
2023/03/01 09:12:44;;;;;;;26.23;16.10;;;5.90;1.00;;;;;;5027431;28;20188;-51
2023/03/01 09:15:10;;;;;;;23.20;15.07;;;5.80;1.00;;;;;;5025116;28;20189;-51
2023/03/01 09:17:36;;;;;;;24.60;15.40;;;5.60;1.00;;;;;;5025373;28;20208;-51
2023/03/01 09:20:01;;;;;;;23.70;15.90;;;5.70;1.00;;;;;;5026231;28;20510;-51
2023/03/01 09:22:27;;;;;;;22.40;15.10;;;5.60;1.00;;;;;;5024047;28;20192;-50
2023/03/01 09:24:52;;;;;;;22.83;13.80;;;5.60;1.00;;;;;;5026120;28;20245;-51
2023/03/01 09:27:19;;;;;;;25.53;15.27;;;5.60;1.00;;;;;;5024723;28;20290;-51
2023/03/01 09:29:45;;;;;;;20.77;13.50;;;5.60;1.00;;;;;;5023437;28;20529;-51
2023/03/01 09:32:10;;;;;;;23.50;14.73;;;5.60;1.00;;;;;;5023997;28;20496;-51
2023/03/01 09:35:00;;;;;;;22.27;14.83;;;5.60;1.00;;;;;;5026566;28;20197;-51
2023/03/01 09:37:22;;;;;;;34.10;14.07;;;5.60;1.00;;;;;;5024024;28;20211;-50
2023/03/01 09:39:47;;;;;;;25.07;15.00;;;5.70;1.00;;;;;;5025676;28;20932;-51
2023/03/01 09:42:13;;;;;;;25.80;16.07;;;5.60;1.00;;;;;;5024573;28;20187;-53
2023/03/01 09:44:57;;;;;;;24.40;15.40;;;5.60;1.00;;;;;;5024673;28;20240;-51
2023/03/01 09:47:28;;;;;;;26.23;16.60;;;5.70;1.00;;;;;;5024057;28;20310;-51
2023/03/01 09:50:16;;;;;;;24.47;15.80;;;5.80;1.00;;;;;;5024677;28;20434;-51
2023/03/01 09:52:42;;;;;;;29.43;16.57;;;6.10;1.00;;;;;;5024632;28;20538;-51
2023/03/01 09:55:14;;;;;;;27.50;16.80;;;6.30;1.00;;;;;;5026169;28;20439;-51
2023/03/01 09:57:58;;;;;;;28.50;16.33;;;6.40;1.00;;;;;;5024793;28;20237;-51
2023/03/01 10:00:42;;;;;;;21.07;15.03;;;6.50;1.00;;;;;;5023346;28;20476;-51
2023/03/01 10:03:22;;;;;;;21.67;14.70;;;6.70;1.00;;;;;;5022948;28;20446;-51
2023/03/01 10:06:09;;;;;;;30.80;15.30;;;6.70;1.00;;;;;;5023868;28;20919;-51
2023/03/01 10:08:57;;;;;;;27.00;15.27;;;6.90;1.00;;;;;;5023608;28;20451;-51
2023/03/01 10:11:28;;;;;;;25.13;14.50;;;6.90;1.00;;;;;;5022450;28;20447;-52
2023/03/01 10:14:28;;;;;;;26.53;13.77;;;7.00;1.00;;;;;;5026026;28;20855;-50
2023/03/01 10:17:02;;;;;;;20.67;12.93;;;7.00;1.00;;;;;;5028467;28;20446;-51
2023/03/01 10:19:38;;;;;;;19.40;13.17;;;7.20;1.00;;;;;;5027333;28;20487;-51
2023/03/01 10:22:21;;;;;;;23.10;13.37;;;7.20;1.00;;;;;;5030395;28;20444;-52
2023/03/01 10:24:47;;;;;;;22.90;14.83;;;7.30;1.00;;;;;;5028705;28;20438;-51
2023/03/01 10:27:33;;;;;;;25.63;14.87;;;7.60;1.00;;;;;;5029299;28;20936;-51
2023/03/01 10:30:13;;;;;;;24.07;13.47;;;7.70;1.00;;;;;;5028600;28;20436;-51
2023/03/01 10:32:39;;;;;;;24.33;13.40;;;8.20;1.00;;;;;;5026845;28;20452;-51
2023/03/01 10:35:20;;;;;;;20.63;12.27;;;8.40;1.00;;;;;;5029201;28;20585;-51
2023/03/01 10:38:07;;;;;;;20.43;12.60;;;8.40;1.00;;;;;;5030197;28;20915;-51
2023/03/01 10:40:35;;;;;;;19.53;12.43;;;8.20;1.00;;;;;;5028681;28;20473;-51
2023/03/01 10:43:05;;;;;;;19.43;11.33;;;8.30;1.00;;;;;;5027062;28;20477;-51
2023/03/01 10:45:39;;;;;;;16.90;10.70;;;8.40;1.00;;;;;;5026559;28;20443;-51
2023/03/01 10:48:13;;;;;;;16.37;10.63;;;8.50;1.00;;;;;;5026978;28;20562;-51
2023/03/01 10:50:41;;;;;;;15.00;9.57;;;8.60;1.00;;;;;;5025932;28;20492;-51
2023/03/01 10:53:28;;;;;;;17.70;10.17;;;8.80;1.00;;;;;;5026609;28;20880;-51
2023/03/01 10:56:14;;;;;;;15.97;9.20;;;8.90;1.00;;;;;;5030145;28;20998;-51
2023/03/01 10:58:56;;;;;;;12.80;8.60;;;9.20;1.00;;;;;;5029625;28;20473;-51
2023/03/01 11:01:34;;;;;;;14.33;8.87;;;9.70;1.00;;;;;;5028840;28;20482;-51
2023/03/01 11:04:18;;;;;;;15.47;9.50;;;9.90;1.00;;;;;;5028149;28;20461;-51
2023/03/01 11:06:57;;;;;;;13.70;8.53;;;9.80;1.00;;;;;;5027970;28;20462;-53
2023/03/01 11:09:27;;;;;;;15.27;8.27;;;10.10;1.00;;;;;;5029094;28;20527;-52
2023/03/01 11:11:57;;;;;;;13.67;8.10;;;10.60;1.00;;;;;;5027627;28;20921;-52
2023/03/01 11:14:26;;;;;;;17.43;9.07;;;11.10;1.00;;;;;;5028701;28;20466;-51
2023/03/01 11:17:12;;;;;;;14.70;8.03;;;11.60;1.00;;;;;;5026273;28;20443;-51
2023/03/01 11:19:38;;;;;;;13.37;9.00;;;11.80;1.00;;;;;;5024776;28;20492;-52
2023/03/01 11:22:12;;;;;;;12.50;7.60;;;12.20;1.00;;;;;;5027565;28;20963;-51
2023/03/01 11:24:43;;;;;;;13.53;8.67;;;12.50;1.00;;;;;;5025999;28;20188;-51
2023/03/01 11:27:19;;;;;;;12.00;8.00;;;12.90;1.00;;;;;;5026650;28;20997;-52
2023/03/01 11:29:59;;;;;;;13.03;7.60;;;13.60;1.00;;;;;;5029554;28;20463;-51
2023/03/01 11:32:29;;;;;;;9.90;7.40;;;14.40;1.00;;;;;;5028684;28;20439;-51
2023/03/01 11:35:19;;;;;;;11.73;8.80;;;14.80;1.00;;;;;;5026415;28;20505;-52
2023/03/01 11:38:01;;;;;;;13.03;7.97;;;15.20;1.00;;;;;;5025138;28;20522;-51
2023/03/01 11:40:41;;;;;;;9.97;7.03;;;15.50;1.00;;;;;;5026259;28;20476;-51
2023/03/01 11:43:42;;;;;;;11.37;7.80;;;16.00;1.00;;;;;;5028286;28;20486;-51
2023/03/01 11:46:13;;;;;;;11.77;7.03;;;16.10;1.00;;;;;;5026419;28;20448;-51
2023/03/01 11:49:01;;;;;;;11.23;8.27;;;16.30;1.00;;;;;;5026386;28;20524;-51
2023/03/01 11:52:03;;;;;;;10.03;6.60;;;16.30;1.00;;;;;;5025982;28;20940;-52
2023/03/01 11:54:53;;;;;;;11.17;7.60;;;16.60;1.00;;;;;;5027503;28;20456;-52
2023/03/01 11:57:38;;;;;;;10.43;6.80;;;16.90;1.00;;;;;;5028482;28;20527;-51
2023/03/01 12:00:42;;;;;;;7.47;6.00;;;16.50;1.00;;;;;;5026655;28;20484;-51
2023/03/01 12:03:41;;;;;;;9.60;5.93;;;16.80;1.00;;;;;;5027152;28;20454;-51
2023/03/01 12:06:38;;;;;;;9.00;6.73;;;16.80;1.00;;;;;;5025451;28;20488;-52
2023/03/01 12:09:15;;;;;;;6.00;4.70;;;16.90;1.00;;;;;;5026670;28;20507;-52
2023/03/01 12:12:02;;;;;;;7.70;5.60;;;17.30;1.00;;;;;;5025735;28;20495;-51
2023/03/01 12:14:39;;;;;;;9.93;5.90;;;17.80;1.00;;;;;;5028421;28;20812;-51
2023/03/01 12:17:32;;;;;;;9.47;6.03;;;17.40;1.00;;;;;;5026229;28;20457;-51
2023/03/01 12:20:19;;;;;;;10.13;6.13;;;17.20;1.00;;;;;;5025624;28;20493;-51
2023/03/01 12:22:58;;;;;;;11.43;6.33;;;17.20;1.00;;;;;;5027123;28;20484;-51
2023/03/01 12:25:52;;;;;;;10.20;6.13;;;17.30;1.00;;;;;;5025547;28;23621;-51
2023/03/01 12:28:51;;;;;;;8.07;6.17;;;17.50;1.00;;;;;;5026335;28;20454;-51
2023/03/01 12:31:39;;;;;;;7.90;5.90;;;17.90;1.00;;;;;;5028298;28;21464;-51
2023/03/01 12:34:30;;;;;;;7.57;5.90;;;17.70;1.00;;;;;;5026084;28;20467;-52
2023/03/01 12:37:25;;;;;;;12.17;6.27;;;17.80;99.90;;;;;;5025541;28;20444;-51
2023/03/01 12:39:57;;;;;;;7.10;6.10;;;17.40;1.00;;;;;;5012947;28;20484;-51
2023/03/01 12:42:39;;;;;;;8.70;6.57;;;17.60;1.00;;;;;;5026090;28;20849;-51
2023/03/01 12:45:26;;;;;;;7.70;6.10;;;17.70;99.90;;;;;;5025083;28;20486;-51
2023/03/01 12:47:52;;;;;;;10.67;7.37;;;17.60;99.90;;;;;;5024077;28;20443;-51
2023/03/01 12:50:24;;;;;;;9.07;7.10;;;17.50;99.90;;;;;;5028486;28;20974;-51
2023/03/01 12:52:49;;;;;;;9.80;7.30;;;17.40;99.90;;;;;;5026701;28;20496;-51
2023/03/01 12:55:42;;;;;;;9.80;7.40;;;17.60;99.90;;;;;;5026251;28;20477;-51
2023/03/01 12:58:32;;;;;;;8.50;6.30;;;17.60;99.90;;;;;;5024414;28;20208;-52
2023/03/01 13:01:03;;;;;;;10.57;7.70;;;17.60;99.90;;;;;;5023797;28;20447;-51
2023/03/01 13:03:50;;;;;;;7.90;6.50;;;17.50;99.90;;;;;;5025905;28;20455;-51
2023/03/01 13:06:29;;;;;;;7.77;6.10;;;17.40;99.90;;;;;;5025993;28;20610;-51
2023/03/01 13:09:01;;;;;;;10.03;6.90;;;17.30;1.00;;;;;;5025567;28;20478;-51
2023/03/01 13:11:27;;;;;;;11.40;6.50;;;17.40;99.90;;;;;;5024156;28;20448;-51
2023/03/01 13:14:25;;;;;;;9.47;6.50;;;17.60;99.90;;;;;;5028769;28;20768;-51